Crystal, Maine
Current Conditions -  °F | °C
As of 1:53 PM on Friday 28 Nov 2014 (Local Time) from KHUL Reporting Station
Overcast Overcast  
Wind Chill: 12°   Ceiling: 10000
Heat Index: 20°   Visibility: 10mi
Dew Point:   Wind: 6mph
Humidity: 62%   Direction: 330°NNW
Pressure: 29.97"   Gusts: NA
Location:  46.0051°N, 68.2487°W
Report Text: KHUL 281853Z AUTO 33005KT 10SM OVC100 M07/M13 A2997 RMK AO2 SLP159 T10671128
Loading
Personal Weather Stations






























Interactive Weather Map New forecast layout! Learn more

10-Day Weather Forecast

Advertisements
Track Severe Weather on mobile